MOL Celebration — C6WW7 — position and weather

sailwx.info

Track history (hours):
 
Tides and Currents Weather Stations Pressure Air Temp Water Temp Dewpoint Dewpoint Depression Visibility Wind Speed Wind Dir Waves Ship Positions

MOL Celebration

Last reported at 2016-Aug-30 04:03 UTC. Time now 2016-Aug-30 09:11 UTC.
Position N 39°38' W 126°13'.

Length 316 m; draft 12.9 m.

Type: Ship (hazmat cat D). MMSI: 309901000.

Date/timePositionNaut miles runAvg speedWind from/ knotsBaromVisibWave heightAir tempDewpointWater temp
2016-Aug-30 04:03N 39°38' W 126°13'814.9
2016-Aug-30 03:33N 39°34' W 126°05'1514.7
2016-Aug-30 02:33N 39°26' W 125°49'1515.3
2016-Aug-30 01:34N 39°18' W 125°33'1715.0
2016-Aug-30 00:24N 39°08' W 125°14'1915.5
2016-Aug-29 23:09N 38°57' W 124°54'1115.8
2016-Aug-29 22:27N 38°51' W 124°42'1415.6
2016-Aug-29 21:33N 38°44' W 124°27'1615.2
2016-Aug-29 20:29N 38°35' W 124°09'1615.5
2016-Aug-29 19:29N 38°26' W 123°53'1415.6
2016-Aug-29 18:33N 38°19' W 123°37'1515.2
2016-Aug-29 17:34N 38°10' W 123°22'10 9.6
2016-Aug-29 16:34N 38°02' W 123°13'10 9.6
2016-Aug-29 15:33N 37°56' W 123°04'10 9.5
2016-Aug-29 14:34N 37°52' W 122°53'9 9.5
2016-Aug-29 13:33N 37°47' W 122°43'1111.2
2016-Aug-29 12:34N 37°49' W 122°29'8 7.6
2016-Aug-29 11:33N 37°49' W 122°20'0 0.3
2016-Aug-29 10:33N 37°49' W 122°20'0 0.0
2016-Aug-29 09:34N 37°49' W 122°20'0 0.0
2016-Aug-29 08:34N 37°49' W 122°20'0 0.0
2016-Aug-29 07:33N 37°49' W 122°20'0 0.0
2016-Aug-29 06:34N 37°49' W 122°20'0 0.0
2016-Aug-29 05:33N 37°49' W 122°20'0 0.0
2016-Aug-29 04:33N 37°49' W 122°20'0 0.0
2016-Aug-29 03:33N 37°49' W 122°20'0 0.0
2016-Aug-29 02:33N 37°49' W 122°20'0 0.0
2016-Aug-29 01:33N 37°49' W 122°20'0 0.0
2016-Aug-29 00:33N 37°49' W 122°20'0 0.0
2016-Aug-28 23:33N 37°49' W 122°20'0 0.0
2016-Aug-28 22:33N 37°49' W 122°20'0 0.0
2016-Aug-28 21:33N 37°49' W 122°20'0 0.0
2016-Aug-28 20:33N 37°49' W 122°20'0 0.0
2016-Aug-28 19:33N 37°49' W 122°20'0 0.0
2016-Aug-28 18:33N 37°49' W 122°20'0 0.0
2016-Aug-28 17:33N 37°49' W 122°20'0 0.0
2016-Aug-28 16:33N 37°49' W 122°20'0 0.0
2016-Aug-28 15:33N 37°49' W 122°20'0 0.0
2016-Aug-28 14:33N 37°49' W 122°20'0 0.0
2016-Aug-28 13:33N 37°49' W 122°20'2 1.8
2016-Aug-28 12:34N 37°48' W 122°22'1313.3
2016-Aug-28 11:33N 37°46' W 122°39'9 8.5
2016-Aug-28 10:33N 37°37' W 122°40'9 9.1
2016-Aug-28 09:33N 37°28' W 122°40'9 9.0
2016-Aug-28 08:33N 37°19' W 122°40'7 7.2
2016-Aug-28 07:33N 37°12' W 122°40'1010.1
2016-Aug-28 06:33N 37°02' W 122°40'1010.3
2016-Aug-28 05:33N 36°51' W 122°40'1010.4
2016-Aug-28 04:33N 36°41' W 122°39'1110.8
2016-Aug-28 03:33N 36°31' W 122°34'1211.5
2016-Aug-28 02:33N 36°20' W 122°30'1111.4
2016-Aug-28 01:33N 36°09' W 122°25'1211.6
2016-Aug-28 00:33N 35°58' W 122°21'1111.2
2016-Aug-27 23:33N 35°48' W 122°16'1111.3
2016-Aug-27 22:33N 35°39' W 122°08'1111.3
2016-Aug-27 21:33N 35°29' W 121°60'1111.4
2016-Aug-27 20:33N 35°20' W 121°51'1211.6
2016-Aug-27 19:33N 35°11' W 121°43'1212.1
2016-Aug-27 18:33N 35°01' W 121°34'1211.7
2016-Aug-27 17:33N 34°52' W 121°25'1311.5
2016-Aug-27 16:25N 34°42' W 121°16'1011.5
2016-Aug-27 15:33N 34°34' W 121°09'4911.3
2016-Aug-27 11:14N 34°18' W 120°13'811.2
2016-Aug-27 10:33N 34°16' W 120°04'1111.5
2016-Aug-27 09:33N 34°12' W 119°51'1111.2
2016-Aug-27 08:33N 34°10' W 119°38'1111.3
2016-Aug-27 07:33N 34°06' W 119°25'1111.3
2016-Aug-27 06:33N 34°03' W 119°12'2311.5
2016-Aug-27 04:33N 33°51' W 118°48'1111.4
2016-Aug-27 03:33N 33°45' W 118°36'1211.6
2016-Aug-27 02:33N 33°40' W 118°24'8 7.6
2016-Aug-27 01:33N 33°42' W 118°15'4 4.2
2016-Aug-27 00:33N 33°46' W 118°16'0 0.1
2016-Aug-26 23:33N 33°46' W 118°16'0 0.0
2016-Aug-26 22:33N 33°46' W 118°16'0 0.0
2016-Aug-26 21:33N 33°46' W 118°16'0 0.0
2016-Aug-26 20:33N 33°46' W 118°16'0 0.0
2016-Aug-26 19:33N 33°46' W 118°16'0 0.0
2016-Aug-26 18:33N 33°46' W 118°16'0 0.0
2016-Aug-26 17:33N 33°46' W 118°16'0 0.0
2016-Aug-26 16:33N 33°46' W 118°16'0 0.0
2016-Aug-26 15:33N 33°46' W 118°16'0 0.0
2016-Aug-26 14:33N 33°46' W 118°16'0 0.0
2016-Aug-26 13:33N 33°46' W 118°16'0 0.0
2016-Aug-26 12:33N 33°46' W 118°16'0 0.0
2016-Aug-26 11:33N 33°46' W 118°16'0 0.0
2016-Aug-26 10:33N 33°46' W 118°16'0 0.0
2016-Aug-26 09:33N 33°46' W 118°16'0 0.0
2016-Aug-26 08:33N 33°46' W 118°16'0 0.0
2016-Aug-26 07:33N 33°46' W 118°16'0 0.0
2016-Aug-26 06:33N 33°46' W 118°16'0 0.0
2016-Aug-26 04:33N 33°46' W 118°16'0 0.0
2016-Aug-26 03:33N 33°46' W 118°16'0 0.0
2016-Aug-26 02:33N 33°46' W 118°16'0 0.0
2016-Aug-26 01:33N 33°46' W 118°16'0 0.0
2016-Aug-26 00:33N 33°46' W 118°16'0 0.0
2016-Aug-25 23:33N 33°46' W 118°16'0 0.0
2016-Aug-25 22:33N 33°46' W 118°16'0 0.0
2016-Aug-25 21:33N 33°46' W 118°16'0 0.0
2016-Aug-25 20:33N 33°46' W 118°16'0 0.0
2016-Aug-25 19:33N 33°46' W 118°16'0 0.0
2016-Aug-25 18:33N 33°46' W 118°16'0 0.0
2016-Aug-25 17:33N 33°46' W 118°16'0 0.0
2016-Aug-25 16:33N 33°46' W 118°16'0 0.0
2016-Aug-25 15:33N 33°46' W 118°16'0 0.0
2016-Aug-25 14:33N 33°46' W 118°16'0 0.0
2016-Aug-25 13:33N 33°46' W 118°16'0 0.0
2016-Aug-25 12:33N 33°46' W 118°16'0 0.0
2016-Aug-25 11:33N 33°46' W 118°16'0 0.0
2016-Aug-25 10:33N 33°46' W 118°16'0 0.0
2016-Aug-25 09:33N 33°46' W 118°16'0 0.0
2016-Aug-25 08:33N 33°46' W 118°16'0 0.0
2016-Aug-25 07:33N 33°46' W 118°16'0 0.0
2016-Aug-25 06:33N 33°46' W 118°16'0 0.0
2016-Aug-25 04:33N 33°46' W 118°16'0 0.0
2016-Aug-25 03:33N 33°46' W 118°16'0 0.0
2016-Aug-25 02:33N 33°46' W 118°16'0 0.0
2016-Aug-25 01:33N 33°46' W 118°16'0 0.2
2016-Aug-25 00:33N 33°46' W 118°16'0 0.0
2016-Aug-24 23:33N 33°46' W 118°16'0 0.0
2016-Aug-24 22:33N 33°46' W 118°16'0 0.0
2016-Aug-24 21:33N 33°46' W 118°16'0 0.0
2016-Aug-24 20:33N 33°46' W 118°16'0 0.0
2016-Aug-24 19:33N 33°46' W 118°16'0 0.0
2016-Aug-24 18:33N 33°46' W 118°16'0 0.0
2016-Aug-24 17:33N 33°46' W 118°16'0 0.0
2016-Aug-24 16:33N 33°46' W 118°16'0 0.0
2016-Aug-24 15:33N 33°46' W 118°16'0 0.0
2016-Aug-24 14:33N 33°46' W 118°16'0 0.0
2016-Aug-24 13:33N 33°46' W 118°16'0 0.0
2016-Aug-24 12:33N 33°46' W 118°16'0 0.0
2016-Aug-24 11:33N 33°46' W 118°16'0 0.0
2016-Aug-24 10:33N 33°46' W 118°16'0 0.0
2016-Aug-24 09:33N 33°46' W 118°16'0 0.0
2016-Aug-24 08:33N 33°46' W 118°16'0 0.0
2016-Aug-24 07:33N 33°46' W 118°16'0 0.0
2016-Aug-24 06:33N 33°46' W 118°16'0 0.0
2016-Aug-24 04:33N 33°46' W 118°16'0 0.0
2016-Aug-24 03:33N 33°46' W 118°16'0 0.0
2016-Aug-24 02:33N 33°46' W 118°16'0 0.0
2016-Aug-24 01:33N 33°46' W 118°16'0 0.0
2016-Aug-24 00:33N 33°46' W 118°16'0 0.0
2016-Aug-23 23:33N 33°46' W 118°16'0 0.0
2016-Aug-23 22:33N 33°46' W 118°16'0 0.0
2016-Aug-23 21:33N 33°46' W 118°16'0 0.0
2016-Aug-23 20:33N 33°46' W 118°16'0 0.0
2016-Aug-23 19:33N 33°46' W 118°16'0 0.0
2016-Aug-23 18:33N 33°46' W 118°16'0 0.0
2016-Aug-23 17:33N 33°46' W 118°16'0 0.0
2016-Aug-23 16:33N 33°46' W 118°16'0 0.0
2016-Aug-23 15:33N 33°46' W 118°16'0 0.0
2016-Aug-23 14:33N 33°46' W 118°16'0 0.0
2016-Aug-23 13:33N 33°46' W 118°16'0 0.0
2016-Aug-23 12:33N 33°46' W 118°16'0 0.0
2016-Aug-23 11:33N 33°46' W 118°16'0 0.0
2016-Aug-23 10:33N 33°46' W 118°16'0 0.0
2016-Aug-23 09:33N 33°46' W 118°16'0 0.0
2016-Aug-23 08:33N 33°46' W 118°16'0 0.0
2016-Aug-23 07:33N 33°46' W 118°16'0 0.0
2016-Aug-23 06:33N 33°46' W 118°16'0 0.0
2016-Aug-23 05:33N 33°46' W 118°16'0 0.0
2016-Aug-23 04:33N 33°46' W 118°16'0 0.0
2016-Aug-23 03:33N 33°46' W 118°16'0 0.0
2016-Aug-23 02:33N 33°46' W 118°16'0 0.0
2016-Aug-23 01:33N 33°46' W 118°16'0 0.0
2016-Aug-23 00:33N 33°46' W 118°16'0 0.0
2016-Aug-22 23:33N 33°46' W 118°16'0 0.0
2016-Aug-22 22:33N 33°46' W 118°16'0 0.0
2016-Aug-22 21:33N 33°46' W 118°16'0 0.0
2016-Aug-22 20:33N 33°46' W 118°16'0 0.0
2016-Aug-22 19:33N 33°46' W 118°16'0 0.0
2016-Aug-22 18:33N 33°46' W 118°16'0 0.0
2016-Aug-22 17:33N 33°46' W 118°16'0 0.0
2016-Aug-22 16:33N 33°46' W 118°16'0 0.0
2016-Aug-22 15:33N 33°46' W 118°16'0 0.0
2016-Aug-22 14:33N 33°46' W 118°16'0 0.0
2016-Aug-22 13:33N 33°46' W 118°16'0 0.5
2016-Aug-22 12:33N 33°45' W 118°17'4 4.1
2016-Aug-22 11:33N 33°42' W 118°14'7 7.2
2016-Aug-22 10:34N 33°36' W 118°19'1010.1
2016-Aug-22 09:33N 33°41' W 118°30'1110.6
2016-Aug-22 08:33N 33°46' W 118°41'1110.7
2016-Aug-22 07:33N 33°51' W 118°52'1110.7
2016-Aug-22 06:33N 33°56' W 119°04'1110.8
2016-Aug-22 05:34N 34°02' W 119°15'1110.7
2016-Aug-22 04:33N 34°05' W 119°27'1110.8
2016-Aug-22 03:33N 34°08' W 119°40'1110.9
2016-Aug-22 02:33N 34°11' W 119°53'1310.7
2016-Aug-22 01:23N 34°14' W 120°07'1410.8
2016-Aug-22 00:03N 34°18' W 120°24'2710.8
2016-Aug-21 21:31N 34°25' W 120°56'1110.1
2016-Aug-21 20:23N 34°27' W 121°09'8 9.5
2016-Aug-21 19:34N 34°29' W 121°19'7 6.0
2016-Aug-21 18:25N 34°30' W 121°27'1214.6
2016-Aug-21 17:33N 34°33' W 121°42'1615.7
2016-Aug-21 16:33N 34°36' W 122°00'3616.1
2016-Aug-21 14:21N 34°43' W 122°43'1416.2
2016-Aug-21 13:27N 34°46' W 122°60'1616.4
2016-Aug-21 12:27N 34°50' W 123°20'9315.8
2016-Aug-21 06:33N 35°09' W 125°11'1615.9
2016-Aug-21 05:33N 35°12' W 125°30'1616.2
2016-Aug-21 04:33N 35°17' W 125°49'1918.7
2016-Aug-21 03:33N 35°26' W 126°08'2018.8
2016-Aug-21 02:30N 35°37' W 126°29'3618.5
2016-Aug-21 00:32N 35°55' W 127°08'1818.0
2016-Aug-20 23:32N 36°04' W 127°27'2117.8
2016-Aug-20 22:21N 36°14' W 127°50'1417.8
2016-Aug-20 21:33N 36°22' W 128°05'1817.7
2016-Aug-20 20:33N 36°30' W 128°24'2417.8
2016-Aug-20 19:13N 36°43' W 128°49'2117.9
2016-Aug-20 18:04N 36°51' W 129°13'917.6
2016-Aug-20 17:32N 36°55' W 129°24'2017.7
2016-Aug-20 16:23N 37°07' W 129°45'1518.6
2016-Aug-20 15:33N 37°15' W 130°01'1917.8
2016-Aug-20 14:31N 37°24' W 130°22'3817.8
2016-Aug-20 12:22N 37°40' W 131°05'  
Track history (hours):
 
Tides and Currents Weather Stations Pressure Air Temp Water Temp Dewpoint Dewpoint Depression Visibility Wind Speed Wind Dir Waves Ship Positions

MOL Celebration

Last reported at 2016-Aug-30 04:03 UTC. Time now 2016-Aug-30 09:11 UTC.
Position N 39°38' W 126°13'.

Length 316 m; draft 12.9 m.

Type: Ship (hazmat cat D). MMSI: 309901000.

Date/timePositionNaut miles runAvg speedWind from/ knotsBaromVisibWave heightAir tempDewpointWater temp
2016-Aug-30 04:03N 39°38' W 126°13'814.9
2016-Aug-30 03:33N 39°34' W 126°05'1514.7
2016-Aug-30 02:33N 39°26' W 125°49'1515.3
2016-Aug-30 01:34N 39°18' W 125°33'1715.0
2016-Aug-30 00:24N 39°08' W 125°14'1915.5
2016-Aug-29 23:09N 38°57' W 124°54'1115.8
2016-Aug-29 22:27N 38°51' W 124°42'1415.6
2016-Aug-29 21:33N 38°44' W 124°27'1615.2
2016-Aug-29 20:29N 38°35' W 124°09'1615.5
2016-Aug-29 19:29N 38°26' W 123°53'1415.6
2016-Aug-29 18:33N 38°19' W 123°37'1515.2
2016-Aug-29 17:34N 38°10' W 123°22'10 9.6
2016-Aug-29 16:34N 38°02' W 123°13'10 9.6
2016-Aug-29 15:33N 37°56' W 123°04'10 9.5
2016-Aug-29 14:34N 37°52' W 122°53'9 9.5
2016-Aug-29 13:33N 37°47' W 122°43'1111.2
2016-Aug-29 12:34N 37°49' W 122°29'8 7.6
2016-Aug-29 11:33N 37°49' W 122°20'0 0.3
2016-Aug-29 10:33N 37°49' W 122°20'0 0.0
2016-Aug-29 09:34N 37°49' W 122°20'0 0.0
2016-Aug-29 08:34N 37°49' W 122°20'0 0.0
2016-Aug-29 07:33N 37°49' W 122°20'0 0.0
2016-Aug-29 06:34N 37°49' W 122°20'0 0.0
2016-Aug-29 05:33N 37°49' W 122°20'0 0.0
2016-Aug-29 04:33N 37°49' W 122°20'0 0.0
2016-Aug-29 03:33N 37°49' W 122°20'0 0.0
2016-Aug-29 02:33N 37°49' W 122°20'0 0.0
2016-Aug-29 01:33N 37°49' W 122°20'0 0.0
2016-Aug-29 00:33N 37°49' W 122°20'0 0.0
2016-Aug-28 23:33N 37°49' W 122°20'0 0.0
2016-Aug-28 22:33N 37°49' W 122°20'0 0.0
2016-Aug-28 21:33N 37°49' W 122°20'0 0.0
2016-Aug-28 20:33N 37°49' W 122°20'0 0.0
2016-Aug-28 19:33N 37°49' W 122°20'0 0.0
2016-Aug-28 18:33N 37°49' W 122°20'0 0.0
2016-Aug-28 17:33N 37°49' W 122°20'0 0.0
2016-Aug-28 16:33N 37°49' W 122°20'0 0.0
2016-Aug-28 15:33N 37°49' W 122°20'0 0.0
2016-Aug-28 14:33N 37°49' W 122°20'0 0.0
2016-Aug-28 13:33N 37°49' W 122°20'2 1.8
2016-Aug-28 12:34N 37°48' W 122°22'1313.3
2016-Aug-28 11:33N 37°46' W 122°39'9 8.5
2016-Aug-28 10:33N 37°37' W 122°40'9 9.1
2016-Aug-28 09:33N 37°28' W 122°40'9 9.0
2016-Aug-28 08:33N 37°19' W 122°40'7 7.2
2016-Aug-28 07:33N 37°12' W 122°40'1010.1
2016-Aug-28 06:33N 37°02' W 122°40'1010.3
2016-Aug-28 05:33N 36°51' W 122°40'1010.4
2016-Aug-28 04:33N 36°41' W 122°39'1110.8
2016-Aug-28 03:33N 36°31' W 122°34'1211.5
2016-Aug-28 02:33N 36°20' W 122°30'1111.4
2016-Aug-28 01:33N 36°09' W 122°25'1211.6
2016-Aug-28 00:33N 35°58' W 122°21'1111.2
2016-Aug-27 23:33N 35°48' W 122°16'1111.3
2016-Aug-27 22:33N 35°39' W 122°08'1111.3
2016-Aug-27 21:33N 35°29' W 121°60'1111.4
2016-Aug-27 20:33N 35°20' W 121°51'1211.6
2016-Aug-27 19:33N 35°11' W 121°43'1212.1
2016-Aug-27 18:33N 35°01' W 121°34'1211.7
2016-Aug-27 17:33N 34°52' W 121°25'1311.5
2016-Aug-27 16:25N 34°42' W 121°16'1011.5
2016-Aug-27 15:33N 34°34' W 121°09'4911.3
2016-Aug-27 11:14N 34°18' W 120°13'811.2
2016-Aug-27 10:33N 34°16' W 120°04'1111.5
2016-Aug-27 09:33N 34°12' W 119°51'1111.2
2016-Aug-27 08:33N 34°10' W 119°38'1111.3
2016-Aug-27 07:33N 34°06' W 119°25'1111.3
2016-Aug-27 06:33N 34°03' W 119°12'2311.5
2016-Aug-27 04:33N 33°51' W 118°48'1111.4
2016-Aug-27 03:33N 33°45' W 118°36'1211.6
2016-Aug-27 02:33N 33°40' W 118°24'8 7.6
2016-Aug-27 01:33N 33°42' W 118°15'4 4.2
2016-Aug-27 00:33N 33°46' W 118°16'0 0.1
2016-Aug-26 23:33N 33°46' W 118°16'0 0.0
2016-Aug-26 22:33N 33°46' W 118°16'0 0.0
2016-Aug-26 21:33N 33°46' W 118°16'0 0.0
2016-Aug-26 20:33N 33°46' W 118°16'0 0.0
2016-Aug-26 19:33N 33°46' W 118°16'0 0.0
2016-Aug-26 18:33N 33°46' W 118°16'0 0.0
2016-Aug-26 17:33N 33°46' W 118°16'0 0.0
2016-Aug-26 16:33N 33°46' W 118°16'0 0.0
2016-Aug-26 15:33N 33°46' W 118°16'0 0.0
2016-Aug-26 14:33N 33°46' W 118°16'0 0.0
2016-Aug-26 13:33N 33°46' W 118°16'0 0.0
2016-Aug-26 12:33N 33°46' W 118°16'0 0.0
2016-Aug-26 11:33N 33°46' W 118°16'0 0.0
2016-Aug-26 10:33N 33°46' W 118°16'0 0.0
2016-Aug-26 09:33N 33°46' W 118°16'0 0.0
2016-Aug-26 08:33N 33°46' W 118°16'0 0.0
2016-Aug-26 07:33N 33°46' W 118°16'0 0.0
2016-Aug-26 06:33N 33°46' W 118°16'0 0.0
2016-Aug-26 04:33N 33°46' W 118°16'0 0.0
2016-Aug-26 03:33N 33°46' W 118°16'0 0.0
2016-Aug-26 02:33N 33°46' W 118°16'0 0.0
2016-Aug-26 01:33N 33°46' W 118°16'0 0.0
2016-Aug-26 00:33N 33°46' W 118°16'0 0.0
2016-Aug-25 23:33N 33°46' W 118°16'0 0.0
2016-Aug-25 22:33N 33°46' W 118°16'0 0.0
2016-Aug-25 21:33N 33°46' W 118°16'0 0.0
2016-Aug-25 20:33N 33°46' W 118°16'0 0.0
2016-Aug-25 19:33N 33°46' W 118°16'0 0.0
2016-Aug-25 18:33N 33°46' W 118°16'0 0.0
2016-Aug-25 17:33N 33°46' W 118°16'0 0.0
2016-Aug-25 16:33N 33°46' W 118°16'0 0.0
2016-Aug-25 15:33N 33°46' W 118°16'0 0.0
2016-Aug-25 14:33N 33°46' W 118°16'0 0.0
2016-Aug-25 13:33N 33°46' W 118°16'0 0.0
2016-Aug-25 12:33N 33°46' W 118°16'0 0.0
2016-Aug-25 11:33N 33°46' W 118°16'0 0.0
2016-Aug-25 10:33N 33°46' W 118°16'0 0.0
2016-Aug-25 09:33N 33°46' W 118°16'0 0.0
2016-Aug-25 08:33N 33°46' W 118°16'0 0.0
2016-Aug-25 07:33N 33°46' W 118°16'0 0.0
2016-Aug-25 06:33N 33°46' W 118°16'0 0.0
2016-Aug-25 04:33N 33°46' W 118°16'0 0.0
2016-Aug-25 03:33N 33°46' W 118°16'0 0.0
2016-Aug-25 02:33N 33°46' W 118°16'0 0.0
2016-Aug-25 01:33N 33°46' W 118°16'0 0.2
2016-Aug-25 00:33N 33°46' W 118°16'0 0.0
2016-Aug-24 23:33N 33°46' W 118°16'0 0.0
2016-Aug-24 22:33N 33°46' W 118°16'0 0.0
2016-Aug-24 21:33N 33°46' W 118°16'0 0.0
2016-Aug-24 20:33N 33°46' W 118°16'0 0.0
2016-Aug-24 19:33N 33°46' W 118°16'0 0.0
2016-Aug-24 18:33N 33°46' W 118°16'0 0.0
2016-Aug-24 17:33N 33°46' W 118°16'0 0.0
2016-Aug-24 16:33N 33°46' W 118°16'0 0.0
2016-Aug-24 15:33N 33°46' W 118°16'0 0.0
2016-Aug-24 14:33N 33°46' W 118°16'0 0.0
2016-Aug-24 13:33N 33°46' W 118°16'0 0.0
2016-Aug-24 12:33N 33°46' W 118°16'0 0.0
2016-Aug-24 11:33N 33°46' W 118°16'0 0.0
2016-Aug-24 10:33N 33°46' W 118°16'0 0.0
2016-Aug-24 09:33N 33°46' W 118°16'0 0.0
2016-Aug-24 08:33N 33°46' W 118°16'0 0.0
2016-Aug-24 07:33N 33°46' W 118°16'0 0.0
2016-Aug-24 06:33N 33°46' W 118°16'0 0.0
2016-Aug-24 04:33N 33°46' W 118°16'0 0.0
2016-Aug-24 03:33N 33°46' W 118°16'0 0.0
2016-Aug-24 02:33N 33°46' W 118°16'0 0.0
2016-Aug-24 01:33N 33°46' W 118°16'0 0.0
2016-Aug-24 00:33N 33°46' W 118°16'0 0.0
2016-Aug-23 23:33N 33°46' W 118°16'0 0.0
2016-Aug-23 22:33N 33°46' W 118°16'0 0.0
2016-Aug-23 21:33N 33°46' W 118°16'0 0.0
2016-Aug-23 20:33N 33°46' W 118°16'0 0.0
2016-Aug-23 19:33N 33°46' W 118°16'0 0.0
2016-Aug-23 18:33N 33°46' W 118°16'0 0.0
2016-Aug-23 17:33N 33°46' W 118°16'0 0.0
2016-Aug-23 16:33N 33°46' W 118°16'0 0.0
2016-Aug-23 15:33N 33°46' W 118°16'0 0.0
2016-Aug-23 14:33N 33°46' W 118°16'0 0.0
2016-Aug-23 13:33N 33°46' W 118°16'0 0.0
2016-Aug-23 12:33N 33°46' W 118°16'0 0.0
2016-Aug-23 11:33N 33°46' W 118°16'0 0.0
2016-Aug-23 10:33N 33°46' W 118°16'0 0.0
2016-Aug-23 09:33N 33°46' W 118°16'0 0.0
2016-Aug-23 08:33N 33°46' W 118°16'0 0.0
2016-Aug-23 07:33N 33°46' W 118°16'0 0.0
2016-Aug-23 06:33N 33°46' W 118°16'0 0.0
2016-Aug-23 05:33N 33°46' W 118°16'0 0.0
2016-Aug-23 04:33N 33°46' W 118°16'0 0.0
2016-Aug-23 03:33N 33°46' W 118°16'0 0.0
2016-Aug-23 02:33N 33°46' W 118°16'0 0.0
2016-Aug-23 01:33N 33°46' W 118°16'0 0.0
2016-Aug-23 00:33N 33°46' W 118°16'0 0.0
2016-Aug-22 23:33N 33°46' W 118°16'0 0.0
2016-Aug-22 22:33N 33°46' W 118°16'0 0.0
2016-Aug-22 21:33N 33°46' W 118°16'0 0.0
2016-Aug-22 20:33N 33°46' W 118°16'0 0.0
2016-Aug-22 19:33N 33°46' W 118°16'0 0.0
2016-Aug-22 18:33N 33°46' W 118°16'0 0.0
2016-Aug-22 17:33N 33°46' W 118°16'0 0.0
2016-Aug-22 16:33N 33°46' W 118°16'0 0.0
2016-Aug-22 15:33N 33°46' W 118°16'0 0.0
2016-Aug-22 14:33N 33°46' W 118°16'0 0.0
2016-Aug-22 13:33N 33°46' W 118°16'0 0.5
2016-Aug-22 12:33N 33°45' W 118°17'4 4.1
2016-Aug-22 11:33N 33°42' W 118°14'7 7.2
2016-Aug-22 10:34N 33°36' W 118°19'1010.1
2016-Aug-22 09:33N 33°41' W 118°30'1110.6
2016-Aug-22 08:33N 33°46' W 118°41'1110.7
2016-Aug-22 07:33N 33°51' W 118°52'1110.7
2016-Aug-22 06:33N 33°56' W 119°04'1110.8
2016-Aug-22 05:34N 34°02' W 119°15'1110.7
2016-Aug-22 04:33N 34°05' W 119°27'1110.8
2016-Aug-22 03:33N 34°08' W 119°40'1110.9
2016-Aug-22 02:33N 34°11' W 119°53'1310.7
2016-Aug-22 01:23N 34°14' W 120°07'1410.8
2016-Aug-22 00:03N 34°18' W 120°24'2710.8
2016-Aug-21 21:31N 34°25' W 120°56'1110.1
2016-Aug-21 20:23N 34°27' W 121°09'8 9.5
2016-Aug-21 19:34N 34°29' W 121°19'7 6.0
2016-Aug-21 18:25N 34°30' W 121°27'1214.6
2016-Aug-21 17:33N 34°33' W 121°42'1615.7
2016-Aug-21 16:33N 34°36' W 122°00'3616.1
2016-Aug-21 14:21N 34°43' W 122°43'1416.2
2016-Aug-21 13:27N 34°46' W 122°60'1616.4
2016-Aug-21 12:27N 34°50' W 123°20'9315.8
2016-Aug-21 06:33N 35°09' W 125°11'1615.9
2016-Aug-21 05:33N 35°12' W 125°30'1616.2
2016-Aug-21 04:33N 35°17' W 125°49'1918.7
2016-Aug-21 03:33N 35°26' W 126°08'2018.8
2016-Aug-21 02:30N 35°37' W 126°29'3618.5
2016-Aug-21 00:32N 35°55' W 127°08'1818.0
2016-Aug-20 23:32N 36°04' W 127°27'2117.8
2016-Aug-20 22:21N 36°14' W 127°50'1417.8
2016-Aug-20 21:33N 36°22' W 128°05'1817.7
2016-Aug-20 20:33N 36°30' W 128°24'2417.8
2016-Aug-20 19:13N 36°43' W 128°49'2117.9
2016-Aug-20 18:04N 36°51' W 129°13'917.6
2016-Aug-20 17:32N 36°55' W 129°24'2017.7
2016-Aug-20 16:23N 37°07' W 129°45'1518.6
2016-Aug-20 15:33N 37°15' W 130°01'1917.8
2016-Aug-20 14:31N 37°24' W 130°22'3817.8
2016-Aug-20 12:22N 37°40' W 131°05'  

Dump ship's entire track history